createdAt,value
2023-04-02T00:01:07.021Z,8.40
2023-04-02T00:04:00.897Z,8.05
2023-04-02T00:06:34.766Z,7.53
2023-04-02T00:09:22.222Z,7.07
2023-04-02T00:11:54.989Z,7.25
2023-04-02T00:14:34.088Z,7.40
2023-04-02T00:17:05.031Z,8.77
2023-04-02T00:19:47.571Z,19.90
2023-04-02T00:22:20.383Z,21.58
2023-04-02T00:24:52.455Z,22.40
2023-04-02T00:27:21.155Z,22.27
2023-04-02T00:29:53.654Z,22.02
2023-04-02T00:32:26.555Z,23.00
2023-04-02T00:34:55.655Z,23.48
2023-04-02T00:37:28.219Z,24.67
2023-04-02T00:40:01.740Z,21.98
2023-04-02T00:42:32.674Z,24.42
2023-04-02T00:45:02.534Z,24.02
2023-04-02T00:47:36.800Z,24.27
2023-04-02T00:50:18.784Z,22.73
2023-04-02T00:53:03.881Z,22.73
2023-04-02T00:56:01.681Z,21.75
2023-04-02T00:58:46.077Z,22.67
2023-04-02T01:01:49.581Z,22.05
2023-04-02T01:10:38.039Z,19.13
2023-04-02T01:13:36.993Z,17.40
2023-04-02T01:16:19.573Z,16.10
2023-04-02T01:19:04.305Z,15.02
2023-04-02T01:22:00.894Z,15.82
2023-04-02T01:24:38.176Z,16.77
2023-04-02T01:27:27.179Z,18.05
2023-04-02T01:30:05.683Z,18.58
2023-04-02T01:36:09.220Z,20.33
2023-04-02T01:38:58.757Z,21.05
2023-04-02T01:42:26.233Z,21.50
2023-04-02T01:45:12.221Z,22.10
2023-04-02T01:47:58.021Z,20.50
2023-04-02T01:50:38.154Z,23.38
2023-04-02T01:53:24.555Z,24.35
2023-04-02T01:55:57.214Z,24.73
2023-04-02T01:58:35.191Z,25.15
2023-04-02T02:01:23.387Z,24.58
2023-04-02T02:04:10.016Z,25.85
2023-04-02T02:07:14.666Z,25.55
2023-04-02T02:10:01.993Z,26.20
2023-04-02T02:12:38.333Z,27.30
2023-04-02T02:15:24.528Z,26.13
2023-04-02T02:18:08.246Z,25.98
2023-04-02T02:21:04.362Z,23.23
2023-04-02T02:23:48.730Z,24.40
2023-04-02T02:26:40.993Z,23.27
2023-04-02T02:29:31.044Z,23.90
2023-04-02T02:32:26.568Z,23.75
2023-04-02T02:35:22.374Z,23.73
2023-04-02T02:38:33.623Z,21.90
2023-04-02T02:41:18.572Z,22.58
2023-04-02T02:44:27.558Z,25.40
2023-04-02T02:47:15.519Z,26.60
2023-04-02T02:50:06.817Z,25.88
2023-04-02T02:53:00.887Z,26.08
2023-04-02T02:55:38.350Z,26.90
2023-04-02T02:58:37.926Z,26.60
2023-04-02T03:01:19.205Z,26.15
2023-04-02T03:07:20.510Z,24.98
2023-04-02T03:10:18.955Z,27.00
2023-04-02T03:13:17.558Z,24.90
2023-04-02T03:16:39.853Z,25.83
2023-04-02T03:19:37.409Z,25.40
2023-04-02T03:22:38.238Z,26.92
2023-04-02T03:28:11.895Z,26.08
2023-04-02T03:31:06.962Z,25.17
2023-04-02T03:33:48.686Z,26.50
2023-04-02T03:36:43.060Z,25.70
2023-04-02T03:39:57.960Z,25.42
2023-04-02T03:42:52.176Z,25.88
2023-04-02T03:45:44.323Z,25.75
2023-04-02T03:48:31.738Z,26.30
2023-04-02T03:51:34.472Z,27.73
2023-04-02T03:54:26.392Z,28.50
2023-04-02T03:57:17.401Z,26.40
2023-04-02T04:00:01.302Z,25.40
2023-04-02T04:03:06.237Z,25.25
2023-04-02T04:05:57.391Z,26.33
2023-04-02T04:08:42.098Z,25.27
2023-04-02T04:11:30.386Z,24.20
2023-04-02T04:14:46.520Z,24.73
2023-04-02T04:17:46.724Z,25.33
2023-04-02T04:20:23.748Z,25.88
2023-04-02T04:23:20.484Z,24.58
2023-04-02T04:26:10.105Z,25.88
2023-04-02T04:28:58.607Z,27.70
2023-04-02T04:31:56.144Z,26.95
2023-04-02T04:34:48.773Z,26.23
2023-04-02T04:37:29.472Z,27.08
2023-04-02T04:40:12.341Z,27.48
2023-04-02T04:42:56.350Z,28.90
2023-04-02T04:45:47.741Z,27.65
2023-04-02T04:48:25.317Z,29.00
2023-04-02T04:50:57.230Z,26.85
2023-04-02T04:53:34.918Z,26.48
2023-04-02T04:59:36.292Z,26.83
2023-04-02T05:02:22.478Z,27.95
2023-04-02T05:04:56.380Z,25.80
2023-04-02T05:07:45.995Z,25.40
2023-04-02T05:10:36.476Z,25.88
2023-04-02T05:13:29.366Z,25.55
2023-04-02T05:16:32.595Z,27.55
2023-04-02T05:19:12.333Z,26.45
2023-04-02T05:22:29.553Z,26.10
2023-04-02T05:25:18.703Z,23.73
2023-04-02T05:28:14.136Z,26.10
2023-04-02T05:31:02.976Z,25.85
2023-04-02T05:34:15.113Z,24.70
2023-04-02T05:36:47.524Z,25.27
2023-04-02T05:39:23.708Z,25.23
2023-04-02T05:42:11.441Z,25.05
2023-04-02T05:45:05.077Z,24.50
2023-04-02T05:53:04.609Z,19.43
2023-04-02T05:55:41.241Z,19.40
2023-04-02T05:58:52.838Z,19.77
2023-04-02T06:02:02.388Z,18.65
2023-04-02T06:04:53.950Z,20.10
2023-04-02T06:07:55.654Z,21.30
2023-04-02T06:10:37.659Z,21.80
2023-04-02T06:13:20.786Z,20.90
2023-04-02T06:15:52.964Z,22.50
2023-04-02T06:18:29.036Z,22.00
2023-04-02T06:20:58.187Z,22.60
2023-04-02T06:23:35.351Z,22.98
2023-04-02T06:26:27.351Z,22.73
2023-04-02T06:29:18.472Z,22.83
2023-04-02T06:31:56.983Z,24.02
2023-04-02T06:34:28.568Z,22.77
2023-04-02T06:37:14.348Z,23.90
2023-04-02T06:39:48.745Z,24.58
2023-04-02T06:42:37.376Z,23.80
2023-04-02T06:45:43.660Z,24.83
2023-04-02T06:49:19.882Z,23.90
2023-04-02T06:51:53.306Z,24.50
2023-04-02T06:54:21.626Z,24.65
2023-04-02T06:56:58.664Z,23.92
2023-04-02T06:59:46.318Z,25.08
2023-04-02T07:02:38.265Z,22.95
2023-04-02T07:05:09.471Z,23.73
2023-04-02T07:07:41.130Z,23.10
2023-04-02T07:10:12.525Z,22.73
2023-04-02T07:12:40.398Z,23.98
2023-04-02T07:15:11.149Z,22.40
2023-04-02T07:17:39.162Z,22.48
2023-04-02T07:20:07.414Z,21.27
2023-04-02T07:22:35.210Z,22.92
2023-04-02T07:25:04.295Z,22.75
2023-04-02T07:27:31.939Z,22.25
2023-04-02T07:29:59.465Z,24.73
2023-04-02T07:32:27.149Z,23.02
2023-04-02T07:34:54.852Z,23.67
2023-04-02T07:37:22.480Z,22.90
2023-04-02T07:39:50.028Z,22.42
2023-04-02T07:42:17.649Z,18.00
2023-04-02T07:44:45.268Z,16.40
2023-04-02T07:47:12.853Z,16.42
2023-04-02T07:49:42.938Z,15.52
2023-04-02T07:52:11.920Z,15.82
2023-04-02T07:54:40.753Z,14.00
2023-04-02T07:57:08.470Z,14.15
2023-04-02T07:59:36.569Z,14.07
2023-04-02T08:02:14.403Z,15.98
2023-04-02T08:04:51.636Z,15.00
2023-04-02T08:07:19.244Z,15.30
2023-04-02T08:09:46.758Z,15.95
2023-04-02T08:12:14.701Z,14.93
2023-04-02T08:14:42.321Z,16.23
2023-04-02T08:17:09.898Z,16.27
2023-04-02T08:19:48.176Z,14.60
2023-04-02T08:22:22.213Z,14.02
2023-04-02T08:24:49.850Z,13.45
2023-04-02T08:27:17.700Z,13.73
2023-04-02T08:29:45.249Z,13.82
2023-04-02T08:32:15.914Z,14.13
2023-04-02T08:34:44.785Z,14.63
2023-04-02T08:37:13.369Z,14.20
2023-04-02T08:39:41.335Z,15.55
2023-04-02T08:42:39.864Z,16.30
2023-04-02T08:45:32.406Z,14.00
2023-04-02T08:48:03.431Z,10.63
2023-04-02T08:50:37.543Z,9.35
2023-04-02T08:53:12.528Z,10.50
2023-04-02T08:56:05.455Z,10.98
2023-04-02T08:58:46.313Z,12.27
2023-04-02T09:01:39.268Z,12.40
2023-04-02T09:04:15.228Z,11.00
2023-04-02T09:06:44.033Z,12.32
2023-04-02T09:09:16.794Z,12.45
2023-04-02T09:11:56.900Z,11.23
2023-04-02T09:14:46.328Z,11.50
2023-04-02T09:17:20.244Z,11.30
2023-04-02T09:19:54.592Z,10.93
2023-04-02T09:22:29.398Z,10.95
2023-04-02T09:25:02.170Z,11.13
2023-04-02T09:27:35.248Z,10.80
2023-04-02T09:30:03.944Z,11.52
2023-04-02T09:32:48.243Z,12.45
2023-04-02T09:35:36.421Z,11.70
2023-04-02T09:38:12.296Z,12.75
2023-04-02T09:40:55.161Z,12.00
2023-04-02T09:43:34.461Z,12.80
2023-04-02T09:46:17.951Z,14.00
2023-04-02T09:48:53.442Z,13.18
2023-04-02T09:51:26.875Z,15.00
2023-04-02T09:54:03.805Z,15.93
2023-04-02T09:56:39.957Z,13.20
2023-04-02T09:59:13.877Z,14.40
2023-04-02T10:01:45.721Z,13.93
2023-04-02T10:04:45.284Z,14.45
2023-04-02T10:07:43.883Z,12.40
2023-04-02T10:10:36.538Z,13.70
2023-04-02T10:13:27.391Z,13.88
2023-04-02T10:16:41.318Z,13.95
2023-04-02T10:19:27.201Z,14.18
2023-04-02T10:26:17.341Z,14.35
2023-04-02T10:28:47.753Z,14.82
2023-04-02T10:31:36.502Z,14.32
2023-04-02T10:34:17.620Z,14.38
2023-04-02T10:36:54.417Z,13.43
2023-04-02T10:39:26.186Z,13.68
2023-04-02T10:42:06.001Z,14.60
2023-04-02T10:44:55.625Z,14.18
2023-04-02T10:47:31.178Z,16.55
2023-04-02T10:50:40.648Z,15.18
2023-04-02T10:53:16.479Z,12.77
2023-04-02T10:55:49.627Z,13.20
2023-04-02T10:58:26.881Z,12.98
2023-04-02T11:01:04.107Z,13.32
2023-04-02T11:03:41.695Z,12.98
2023-04-02T11:06:31.212Z,12.18
2023-04-02T11:09:04.986Z,12.88
2023-04-02T11:11:40.184Z,12.88
2023-04-02T11:14:26.693Z,12.32
2023-04-02T11:16:56.803Z,11.48
2023-04-02T11:19:34.107Z,10.70
2023-04-02T11:22:06.671Z,10.73
2023-04-02T11:24:44.012Z,10.38
2023-04-02T11:27:11.499Z,9.20
2023-04-02T11:30:36.224Z,8.95
2023-04-02T11:34:19.524Z,8.90
2023-04-02T11:36:53.867Z,4.88
2023-04-02T11:40:12.854Z,1.13
2023-04-02T11:46:02.229Z,0.30
2023-04-02T11:48:36.642Z,0.30
2023-04-02T11:51:36.151Z,0.88
2023-04-02T11:54:04.961Z,0.60
2023-04-02T11:56:39.166Z,0.88
2023-04-02T11:59:18.504Z,1.00
2023-04-02T12:02:07.627Z,0.70
2023-04-02T12:04:44.570Z,0.60
2023-04-02T12:07:52.166Z,0.63
2023-04-02T12:10:36.853Z,0.65
2023-04-02T12:13:04.462Z,0.60
2023-04-02T12:15:46.702Z,0.40
2023-04-02T12:18:24.103Z,0.80
2023-04-02T12:20:57.990Z,0.55
2023-04-02T12:23:31.871Z,0.60
2023-04-02T12:26:03.498Z,0.30
2023-04-02T12:28:33.876Z,0.40
2023-04-02T12:31:25.335Z,0.40
2023-04-02T12:33:53.296Z,0.52
2023-04-02T12:36:23.788Z,0.38
2023-04-02T12:38:54.123Z,0.75
2023-04-02T12:41:24.866Z,0.52
2023-04-02T12:44:01.337Z,0.52
2023-04-02T12:46:31.285Z,0.30
2023-04-02T12:49:08.651Z,1.08
2023-04-02T12:51:37.363Z,1.67
2023-04-02T12:54:05.540Z,1.02
2023-04-02T12:56:33.267Z,1.60
2023-04-02T12:59:01.546Z,2.30
2023-04-02T13:01:32.154Z,1.02
2023-04-02T13:04:14.963Z,1.33
2023-04-02T13:06:52.303Z,0.80
2023-04-02T13:09:40.536Z,1.30
2023-04-02T13:12:35.114Z,1.48
2023-04-02T13:15:08.514Z,0.88
2023-04-02T13:17:50.654Z,0.60
2023-04-02T13:21:04.207Z,0.93
2023-04-02T13:23:34.703Z,3.15
2023-04-02T13:26:20.578Z,2.78
2023-04-02T13:29:00.366Z,1.70
2023-04-02T13:31:32.742Z,0.85
2023-04-02T13:34:01.703Z,0.55
2023-04-02T13:36:29.707Z,0.60
2023-04-02T13:38:57.689Z,0.47
2023-04-02T13:41:40.481Z,0.65
2023-04-02T13:44:30.794Z,0.60
2023-04-02T13:46:59.523Z,0.40
2023-04-02T13:49:27.644Z,0.40
2023-04-02T13:52:00.588Z,0.50
2023-04-02T13:54:40.780Z,0.60
2023-04-02T13:57:08.611Z,0.60
2023-04-02T13:59:36.436Z,0.40
2023-04-02T14:02:14.074Z,0.60
2023-04-02T14:04:49.324Z,0.75
2023-04-02T14:07:32.016Z,0.68
2023-04-02T14:10:12.965Z,0.82
2023-04-02T14:12:57.644Z,0.50
2023-04-02T14:16:10.810Z,0.57
2023-04-02T14:18:56.359Z,0.70
2023-04-02T14:21:38.843Z,0.60
2023-04-02T14:24:25.248Z,0.50
2023-04-02T14:27:21.278Z,0.63
2023-04-02T14:29:52.004Z,0.57
2023-04-02T14:32:49.183Z,0.43
2023-04-02T14:35:44.362Z,0.60
2023-04-02T14:38:31.183Z,0.50
2023-04-02T14:41:05.934Z,0.50
2023-04-02T14:43:43.186Z,0.50
2023-04-02T14:46:12.321Z,0.50
2023-04-02T14:49:15.279Z,0.50
2023-04-02T14:51:56.109Z,0.90
2023-04-02T14:54:45.643Z,1.02
2023-04-02T14:57:38.682Z,0.52
2023-04-02T15:00:25.123Z,0.40
2023-04-02T15:02:59.056Z,0.63
2023-04-02T15:05:47.204Z,0.65
2023-04-02T15:08:27.865Z,0.50
2023-04-02T15:11:12.083Z,0.68
2023-04-02T15:13:55.347Z,0.68
2023-04-02T15:16:28.306Z,0.80
2023-04-02T15:18:57.349Z,0.85
2023-04-02T15:21:59.891Z,0.68
2023-04-02T15:24:42.668Z,0.88
2023-04-02T15:27:26.198Z,0.68
2023-04-02T15:30:05.705Z,0.70
2023-04-02T15:32:33.366Z,0.73
2023-04-02T15:35:21.222Z,0.75
2023-04-02T15:38:13.560Z,0.70
2023-04-02T15:40:51.627Z,0.80
2023-04-02T15:43:29.412Z,0.60
2023-04-02T15:46:18.966Z,0.70
2023-04-02T15:49:05.220Z,0.52
2023-04-02T15:52:01.682Z,0.60
2023-04-02T15:54:48.118Z,0.80
2023-04-02T15:57:43.122Z,0.50
2023-04-02T16:00:30.684Z,0.68
2023-04-02T16:03:20.482Z,0.80
2023-04-02T16:05:56.303Z,0.60
2023-04-02T16:08:23.927Z,1.00
2023-04-02T16:10:51.664Z,0.50
2023-04-02T16:13:31.944Z,0.60
2023-04-02T16:16:08.693Z,0.93
2023-04-02T16:19:00.705Z,0.60
2023-04-02T16:21:46.057Z,0.70
2023-04-02T16:24:14.107Z,0.93
2023-04-02T16:26:55.556Z,0.52
2023-04-02T16:29:55.333Z,0.75
2023-04-02T16:32:35.343Z,0.73
2023-04-02T16:35:42.670Z,1.00
2023-04-02T16:38:37.023Z,0.88
2023-04-02T16:41:15.823Z,1.10
2023-04-02T16:44:00.029Z,0.70
2023-04-02T16:46:39.767Z,1.35
2023-04-02T16:49:17.328Z,1.10
2023-04-02T16:52:19.008Z,1.08
2023-04-02T16:55:11.131Z,1.25
2023-04-02T16:57:49.781Z,1.30
2023-04-02T17:00:35.846Z,1.05
2023-04-02T17:03:28.073Z,1.25
2023-04-02T17:06:06.390Z,1.08
2023-04-02T17:08:52.477Z,0.93
2023-04-02T17:11:31.294Z,1.10
2023-04-02T17:14:13.136Z,1.70
2023-04-02T17:16:46.718Z,1.45
2023-04-02T17:19:16.697Z,1.50
2023-04-02T17:21:47.463Z,1.10
2023-04-02T17:24:30.160Z,0.90
2023-04-02T17:27:11.566Z,1.23
2023-04-02T17:29:43.603Z,1.20
2023-04-02T17:32:21.715Z,1.27
2023-04-02T17:34:49.751Z,1.50
2023-04-02T17:37:35.033Z,1.17
2023-04-02T17:40:33.350Z,1.45
2023-04-02T17:43:29.315Z,1.38
2023-04-02T17:46:08.062Z,1.33
2023-04-02T17:48:46.872Z,1.40
2023-04-02T17:51:35.718Z,1.42
2023-04-02T17:54:38.420Z,1.52
2023-04-02T17:58:01.889Z,1.00
2023-04-02T18:01:01.393Z,1.38
2023-04-02T18:03:49.934Z,1.40
2023-04-02T18:06:40.175Z,1.20
2023-04-02T18:09:23.117Z,1.10
2023-04-02T18:12:21.526Z,1.20
2023-04-02T18:15:13.723Z,1.13
2023-04-02T18:21:14.100Z,1.58
2023-04-02T18:23:58.800Z,2.10
2023-04-02T18:27:13.968Z,2.58
2023-04-02T18:30:33.713Z,3.20
2023-04-02T18:33:43.856Z,2.80
2023-04-02T18:36:30.279Z,3.75
2023-04-02T18:39:06.758Z,3.47
2023-04-02T18:42:45.789Z,3.45
2023-04-02T18:45:44.105Z,4.10
2023-04-02T18:48:22.601Z,4.35
2023-04-02T18:51:06.480Z,5.43
2023-04-02T18:53:36.477Z,5.40
2023-04-02T18:56:12.231Z,4.55
2023-04-02T18:58:57.694Z,5.63
2023-04-02T19:04:34.919Z,5.10
2023-04-02T19:07:15.505Z,5.10
2023-04-02T19:09:50.384Z,4.85
2023-04-02T19:12:21.719Z,4.38
2023-04-02T19:14:52.391Z,3.45
2023-04-02T19:17:37.362Z,3.67
2023-04-02T19:20:29.837Z,4.85
2023-04-02T19:23:14.180Z,4.43
2023-04-02T19:25:58.938Z,5.45
2023-04-02T19:28:32.715Z,5.55
2023-04-02T19:31:33.990Z,4.30
2023-04-02T19:34:34.188Z,4.07
2023-04-02T19:37:25.867Z,4.10
2023-04-02T19:40:13.022Z,5.20
2023-04-02T19:42:49.271Z,4.38
2023-04-02T19:45:24.085Z,3.85
2023-04-02T19:47:53.219Z,3.20
2023-04-02T19:50:24.591Z,3.55
2023-04-02T19:52:53.739Z,3.47
2023-04-02T19:55:23.468Z,3.40
2023-04-02T19:57:54.671Z,3.60
2023-04-02T20:00:28.077Z,3.65
2023-04-02T20:02:58.224Z,3.20
2023-04-02T20:05:28.510Z,3.88
2023-04-02T20:07:58.641Z,3.40
2023-04-02T20:10:29.451Z,3.75
2023-04-02T20:12:59.894Z,3.70
2023-04-02T20:15:32.706Z,3.45
2023-04-02T20:18:06.476Z,4.00
2023-04-02T20:20:49.596Z,3.92
2023-04-02T20:23:22.349Z,5.10
2023-04-02T20:25:56.839Z,4.43
2023-04-02T20:28:28.434Z,4.05
2023-04-02T20:31:20.555Z,4.07
2023-04-02T20:33:50.879Z,3.72
2023-04-02T20:36:20.478Z,3.90
2023-04-02T20:38:51.653Z,3.45
2023-04-02T20:41:22.336Z,2.80
2023-04-02T20:43:50.655Z,2.72
2023-04-02T20:46:42.919Z,2.67
2023-04-02T20:49:12.131Z,2.25
2023-04-02T20:51:40.023Z,2.25
2023-04-02T20:54:08.183Z,2.25
2023-04-02T20:56:41.937Z,2.20
2023-04-02T20:59:09.900Z,1.80
2023-04-02T21:01:42.558Z,1.60
2023-04-02T21:04:10.947Z,1.33
2023-04-02T21:06:42.448Z,1.63
2023-04-02T21:09:18.022Z,2.03
2023-04-02T21:11:46.737Z,2.40
2023-04-02T21:14:14.269Z,2.05
2023-04-02T21:16:42.435Z,2.40
2023-04-02T21:19:11.050Z,1.92
2023-04-02T21:21:39.752Z,2.10
2023-04-02T21:24:09.906Z,1.90
2023-04-02T21:26:41.110Z,1.95
2023-04-02T21:29:11.822Z,1.60
2023-04-02T21:31:41.709Z,1.67
2023-04-02T21:34:13.746Z,1.70
2023-04-02T21:36:47.775Z,1.27
2023-04-02T21:39:21.965Z,1.30
2023-04-02T21:41:52.025Z,1.33
2023-04-02T21:44:22.758Z,1.85
2023-04-02T21:46:53.748Z,1.65
2023-04-02T21:49:23.217Z,1.50
2023-04-02T21:51:51.871Z,1.67
2023-04-02T21:54:20.361Z,1.60
2023-04-02T21:56:49.175Z,2.00
2023-04-02T21:59:17.814Z,1.42
2023-04-02T22:01:50.902Z,1.48
2023-04-02T22:04:24.950Z,0.70
2023-04-02T22:06:56.977Z,1.05
2023-04-02T22:09:26.928Z,1.02
2023-04-02T22:12:01.650Z,1.15
2023-04-02T22:14:29.987Z,0.90
2023-04-02T22:16:58.955Z,1.02
2023-04-02T22:19:27.198Z,1.33
2023-04-02T22:21:56.515Z,1.17
2023-04-02T22:24:25.283Z,0.95
2023-04-02T22:26:53.580Z,1.45
2023-04-02T22:29:21.611Z,2.08
2023-04-02T22:31:49.369Z,1.70
2023-04-02T22:34:17.221Z,1.98
2023-04-02T22:36:45.224Z,2.28
2023-04-02T22:39:15.751Z,1.90
2023-04-02T22:41:43.988Z,1.60
2023-04-02T22:44:16.707Z,1.45
2023-04-02T22:46:44.701Z,1.60
2023-04-02T22:49:12.761Z,1.27
2023-04-02T22:51:40.999Z,1.70
2023-04-02T22:54:08.747Z,1.17
2023-04-02T22:56:37.823Z,1.50
2023-04-02T22:59:06.069Z,1.25
2023-04-02T23:01:37.204Z,1.67
2023-04-02T23:04:08.426Z,1.15
2023-04-02T23:06:37.444Z,1.20
2023-04-02T23:09:05.673Z,1.10
2023-04-02T23:11:33.885Z,0.90
2023-04-02T23:14:01.473Z,1.38
2023-04-02T23:16:30.132Z,1.20
2023-04-02T23:18:59.425Z,1.20
2023-04-02T23:21:27.811Z,1.20
2023-04-02T23:23:56.889Z,1.00
2023-04-02T23:26:30.025Z,1.25
2023-04-02T23:28:59.588Z,1.15
2023-04-02T23:31:28.185Z,1.27
2023-04-02T23:33:55.987Z,0.90
2023-04-02T23:36:32.699Z,0.98
2023-04-02T23:39:05.558Z,1.00
2023-04-02T23:41:35.801Z,1.20
2023-04-02T23:44:04.544Z,1.00
2023-04-02T23:46:33.317Z,1.33
2023-04-02T23:49:01.727Z,1.08
2023-04-02T23:51:33.220Z,1.00
2023-04-02T23:54:01.562Z,1.08
2023-04-02T23:56:29.565Z,1.10
2023-04-02T23:58:58.895Z,1.00
